createdAt,value
2018-02-27T00:00:22.418Z,45.07
2018-02-27T00:03:25.770Z,45.00
2018-02-27T00:06:28.921Z,44.78
2018-02-27T00:09:32.135Z,44.74
2018-02-27T00:12:35.586Z,44.85
2018-02-27T00:15:38.834Z,44.87
2018-02-27T00:18:42.029Z,44.00
2018-02-27T00:21:45.298Z,44.52
2018-02-27T00:24:48.535Z,44.75
2018-02-27T00:27:52.356Z,45.14
2018-02-27T00:30:55.511Z,45.13
2018-02-27T00:33:58.723Z,45.22
2018-02-27T00:37:02.417Z,45.46
2018-02-27T00:40:05.673Z,45.27
2018-02-27T00:43:08.955Z,45.48
2018-02-27T00:46:12.238Z,45.46
2018-02-27T00:49:15.416Z,45.45
2018-02-27T00:52:18.670Z,45.79
2018-02-27T00:55:24.025Z,45.86
2018-02-27T00:58:27.318Z,45.50
2018-02-27T01:01:30.526Z,45.46
2018-02-27T01:04:33.732Z,45.43
2018-02-27T01:07:36.922Z,46.24
2018-02-27T01:10:40.122Z,45.67
2018-02-27T01:13:43.422Z,46.11
2018-02-27T01:16:46.695Z,45.64
2018-02-27T01:19:49.905Z,45.20
2018-02-27T01:22:53.404Z,45.64
2018-02-27T01:25:56.702Z,45.87
2018-02-27T01:28:59.984Z,45.80
2018-02-27T01:32:03.220Z,45.35
2018-02-27T01:35:06.529Z,45.56
2018-02-27T01:38:09.806Z,45.87
2018-02-27T01:41:13.002Z,46.45
2018-02-27T01:44:16.338Z,45.38
2018-02-27T01:47:19.489Z,45.77
2018-02-27T01:50:23.713Z,45.64
2018-02-27T01:53:26.934Z,45.59
2018-02-27T01:56:30.102Z,45.68
2018-02-27T01:59:33.351Z,46.27
2018-02-27T02:02:36.562Z,46.54
2018-02-27T02:05:39.869Z,46.23
2018-02-27T02:08:43.148Z,46.57
2018-02-27T02:11:46.549Z,46.27
2018-02-27T02:14:50.809Z,46.29
2018-02-27T02:17:55.726Z,46.55
2018-02-27T02:21:03.315Z,46.12
2018-02-27T02:24:06.590Z,46.06
2018-02-27T02:27:09.804Z,46.33
2018-02-27T02:30:13.184Z,46.59
2018-02-27T02:33:16.379Z,46.53
2018-02-27T02:36:19.660Z,46.74
2018-02-27T02:42:59.339Z,47.17
2018-02-27T02:46:02.481Z,47.55
2018-02-27T02:49:05.766Z,47.11
2018-02-27T02:52:08.993Z,47.50
2018-02-27T02:55:12.200Z,47.28
2018-02-27T02:58:15.462Z,47.91
2018-02-27T03:01:18.721Z,47.82
2018-02-27T03:04:22.669Z,48.01
2018-02-27T03:07:26.015Z,47.94
2018-02-27T03:10:29.269Z,47.83
2018-02-27T03:13:32.579Z,48.16
2018-02-27T03:16:35.850Z,48.16
2018-02-27T03:19:39.162Z,48.49
2018-02-27T03:22:42.384Z,47.92
2018-02-27T03:25:45.657Z,48.42
2018-02-27T03:28:48.884Z,49.38
2018-02-27T03:31:52.669Z,48.76
2018-02-27T03:34:55.990Z,48.99
2018-02-27T03:37:59.124Z,49.97
2018-02-27T03:41:02.282Z,49.99
2018-02-27T03:44:05.541Z,50.44
2018-02-27T03:47:09.304Z,50.62
2018-02-27T03:50:12.578Z,50.36
2018-02-27T03:53:15.763Z,50.46
2018-02-27T03:56:18.998Z,49.70
2018-02-27T03:59:22.679Z,49.69
2018-02-27T04:02:25.960Z,49.43
2018-02-27T04:05:29.212Z,49.54
2018-02-27T04:08:32.413Z,49.35
2018-02-27T04:11:35.649Z,49.10
2018-02-27T04:14:39.008Z,49.23
2018-02-27T04:17:42.266Z,49.36
2018-02-27T04:20:45.513Z,49.23
2018-02-27T04:27:20.156Z,49.35
2018-02-27T04:30:24.837Z,49.48
2018-02-27T04:33:28.058Z,49.52
2018-02-27T04:36:31.361Z,49.88
2018-02-27T04:39:34.655Z,49.93
2018-02-27T04:42:37.973Z,49.08
2018-02-27T04:45:41.211Z,49.42
2018-02-27T04:48:44.468Z,49.61
2018-02-27T04:55:18.274Z,49.92
2018-02-27T04:58:22.591Z,49.77
2018-02-27T05:01:25.848Z,49.09
2018-02-27T05:04:29.111Z,49.76
2018-02-27T05:07:32.335Z,49.35
2018-02-27T05:10:35.529Z,49.81
2018-02-27T05:13:38.808Z,50.08
2018-02-27T05:16:42.008Z,49.74
2018-02-27T05:19:45.310Z,50.09
2018-02-27T05:22:48.510Z,49.59
2018-02-27T05:25:51.812Z,49.94
2018-02-27T05:28:55.048Z,49.90
2018-02-27T05:31:58.294Z,50.00
2018-02-27T05:35:01.601Z,50.29
2018-02-27T05:38:04.996Z,50.39
2018-02-27T05:41:08.229Z,50.81
2018-02-27T05:44:11.416Z,50.49
2018-02-27T05:47:14.630Z,50.84
2018-02-27T05:50:17.854Z,51.60
2018-02-27T05:53:21.025Z,51.74
2018-02-27T05:56:25.142Z,52.07
2018-02-27T05:59:28.617Z,53.30
2018-02-27T06:02:31.961Z,53.12
2018-02-27T06:05:35.388Z,53.41
2018-02-27T06:08:38.605Z,52.92
2018-02-27T06:11:41.921Z,52.34
2018-02-27T06:14:45.131Z,52.92
2018-02-27T06:17:48.362Z,52.71
2018-02-27T06:20:51.622Z,53.21
2018-02-27T06:23:54.983Z,53.10
2018-02-27T06:26:58.298Z,53.81
2018-02-27T06:30:01.581Z,54.07
2018-02-27T06:33:04.876Z,53.82
2018-02-27T06:36:08.206Z,54.10
2018-02-27T06:39:11.393Z,53.98
2018-02-27T06:42:14.685Z,53.69
2018-02-27T06:45:18.231Z,53.85
2018-02-27T06:48:21.470Z,53.82
2018-02-27T06:51:24.684Z,52.95
2018-02-27T06:54:29.007Z,53.11
2018-02-27T06:57:32.224Z,53.67
2018-02-27T07:00:35.492Z,53.46
2018-02-27T07:03:38.683Z,52.89
2018-02-27T07:06:41.919Z,52.14
2018-02-27T07:09:45.185Z,51.74
2018-02-27T07:12:48.522Z,50.96
2018-02-27T07:15:51.701Z,51.42
2018-02-27T07:18:55.070Z,51.51
2018-02-27T07:21:58.382Z,50.67
2018-02-27T07:25:01.682Z,50.59
2018-02-27T07:28:06.709Z,51.03
2018-02-27T07:31:10.082Z,50.37
2018-02-27T07:34:13.295Z,50.71
2018-02-27T07:37:17.495Z,50.81
2018-02-27T07:40:20.713Z,50.91
2018-02-27T07:43:23.983Z,50.87
2018-02-27T07:46:27.158Z,50.25
2018-02-27T07:49:30.399Z,48.87
2018-02-27T07:52:33.725Z,49.86
2018-02-27T07:55:37.062Z,50.07
2018-02-27T07:58:40.235Z,48.67
2018-02-27T08:01:43.470Z,47.75
2018-02-27T08:04:46.972Z,48.02
2018-02-27T08:07:50.217Z,48.08
2018-02-27T08:10:54.619Z,47.37
2018-02-27T08:13:57.941Z,46.49
2018-02-27T08:17:01.144Z,47.17
2018-02-27T08:20:04.503Z,45.71
2018-02-27T08:23:07.783Z,45.98
2018-02-27T08:26:11.003Z,45.56
2018-02-27T08:29:14.253Z,46.02
2018-02-27T08:32:17.515Z,45.52
2018-02-27T08:35:20.801Z,43.70
2018-02-27T08:38:24.097Z,43.11
2018-02-27T08:41:27.397Z,42.86
2018-02-27T08:44:30.702Z,42.60
2018-02-27T08:47:34.002Z,42.92
2018-02-27T08:50:37.185Z,41.73
2018-02-27T08:53:40.427Z,41.22
2018-02-27T08:56:43.617Z,41.02
2018-02-27T08:59:46.807Z,41.08
2018-02-27T09:02:50.073Z,40.93
2018-02-27T09:05:53.213Z,40.94
2018-02-27T09:08:56.476Z,40.77
2018-02-27T09:11:59.759Z,40.66
2018-02-27T09:15:03.163Z,40.89
2018-02-27T09:18:06.430Z,40.71
2018-02-27T09:21:09.910Z,40.62
2018-02-27T09:24:13.099Z,40.05
2018-02-27T09:27:16.378Z,39.12
2018-02-27T09:30:19.723Z,39.63
2018-02-27T09:33:22.902Z,39.76
2018-02-27T09:36:26.154Z,39.31
2018-02-27T09:39:29.442Z,39.05
2018-02-27T09:42:32.768Z,38.58
2018-02-27T09:45:35.914Z,38.04
2018-02-27T09:48:39.253Z,38.42
2018-02-27T09:51:42.550Z,38.55
2018-02-27T09:54:45.905Z,38.29
2018-02-27T09:57:50.313Z,38.27
2018-02-27T10:00:53.486Z,37.85
2018-02-27T10:03:56.686Z,37.35
2018-02-27T10:06:59.891Z,37.57
2018-02-27T10:10:03.290Z,37.08
2018-02-27T10:13:06.547Z,36.93
2018-02-27T10:19:40.609Z,36.12
2018-02-27T10:22:44.001Z,35.65
2018-02-27T10:25:47.186Z,36.42
2018-02-27T10:28:50.380Z,37.68
2018-02-27T10:31:53.864Z,36.99
2018-02-27T10:34:57.066Z,36.17
2018-02-27T10:38:00.222Z,35.92
2018-02-27T10:41:03.462Z,35.81
2018-02-27T10:44:06.708Z,35.07
2018-02-27T10:47:10.436Z,35.63
2018-02-27T10:50:13.722Z,34.88
2018-02-27T10:53:16.935Z,35.00
2018-02-27T10:56:20.819Z,34.96
2018-02-27T10:59:24.128Z,33.28
2018-02-27T11:02:27.378Z,33.97
2018-02-27T11:05:31.310Z,33.45
2018-02-27T11:08:34.529Z,34.08
2018-02-27T11:11:44.944Z,33.88
2018-02-27T11:14:49.196Z,33.33
2018-02-27T11:17:52.506Z,33.13
2018-02-27T11:20:55.794Z,32.58
2018-02-27T11:23:59.183Z,32.51
2018-02-27T11:27:02.502Z,33.34
2018-02-27T11:30:05.720Z,33.43
2018-02-27T11:33:08.994Z,31.83
2018-02-27T11:36:12.190Z,31.49
2018-02-27T11:39:15.369Z,31.00
2018-02-27T11:42:19.054Z,30.55
2018-02-27T11:45:22.282Z,30.31
2018-02-27T11:48:25.438Z,30.59
2018-02-27T11:51:28.572Z,31.36
2018-02-27T11:54:31.744Z,31.04
2018-02-27T11:57:34.960Z,31.43
2018-02-27T12:00:38.194Z,31.08
2018-02-27T12:03:41.406Z,30.79
2018-02-27T12:06:44.696Z,30.97
2018-02-27T12:09:47.953Z,30.76
2018-02-27T12:12:51.881Z,30.52
2018-02-27T12:15:55.161Z,31.63
2018-02-27T12:18:58.386Z,31.38
2018-02-27T12:22:01.591Z,31.70
2018-02-27T12:25:04.837Z,30.78
2018-02-27T12:28:08.068Z,30.96
2018-02-27T12:31:11.329Z,30.59
2018-02-27T12:34:14.638Z,30.86
2018-02-27T12:37:17.948Z,30.40
2018-02-27T12:40:22.408Z,30.04
2018-02-27T12:43:25.645Z,30.50
2018-02-27T12:46:28.923Z,29.86
2018-02-27T12:49:32.091Z,29.03
2018-02-27T12:52:36.302Z,29.37
2018-02-27T12:55:39.586Z,28.79
2018-02-27T12:58:42.904Z,30.12
2018-02-27T13:01:46.100Z,29.91
2018-02-27T13:04:50.190Z,29.27
2018-02-27T13:07:53.418Z,29.09
2018-02-27T13:10:56.720Z,28.62
2018-02-27T13:13:59.992Z,28.41
2018-02-27T13:17:03.201Z,28.87
2018-02-27T13:20:06.834Z,28.85
2018-02-27T13:23:10.002Z,28.14
2018-02-27T13:26:13.315Z,28.19
2018-02-27T13:29:16.583Z,28.37
2018-02-27T13:32:20.529Z,27.96
2018-02-27T13:35:23.778Z,27.89
2018-02-27T13:38:27.089Z,28.13
2018-02-27T13:41:30.297Z,28.71
2018-02-27T13:44:33.503Z,28.46
2018-02-27T13:47:37.979Z,27.99
2018-02-27T13:50:41.280Z,27.38
2018-02-27T13:53:44.527Z,27.00
2018-02-27T13:56:47.937Z,27.83
2018-02-27T13:59:51.645Z,28.31
2018-02-27T14:02:54.767Z,28.42
2018-02-27T14:05:57.877Z,29.22
2018-02-27T14:09:04.584Z,28.24
2018-02-27T14:12:07.677Z,27.56
2018-02-27T14:15:13.929Z,27.16
2018-02-27T14:18:18.215Z,27.57
2018-02-27T14:21:21.324Z,28.41
2018-02-27T14:24:24.396Z,28.81
2018-02-27T14:27:27.608Z,27.32
2018-02-27T14:30:30.727Z,27.96
2018-02-27T14:33:37.405Z,27.31
2018-02-27T14:36:40.588Z,26.77
2018-02-27T14:39:43.685Z,26.97
2018-02-27T14:42:46.784Z,27.17
2018-02-27T14:45:50.049Z,25.70
2018-02-27T14:48:53.134Z,26.06
2018-02-27T14:51:56.228Z,25.46
2018-02-27T14:54:59.355Z,25.49
2018-02-27T14:58:06.178Z,25.18
2018-02-27T15:01:09.285Z,25.66
2018-02-27T15:04:12.383Z,26.47
2018-02-27T15:07:15.471Z,26.00
2018-02-27T15:10:18.576Z,26.56
2018-02-27T15:13:21.696Z,26.76
2018-02-27T15:16:24.787Z,27.62
2018-02-27T15:19:27.890Z,27.74
2018-02-27T15:22:30.975Z,27.82
2018-02-27T15:25:34.077Z,27.76
2018-02-27T15:28:37.199Z,27.78
2018-02-27T15:31:40.288Z,27.48
2018-02-27T15:34:43.375Z,27.91
2018-02-27T15:37:46.523Z,27.58
2018-02-27T15:40:49.589Z,27.16
2018-02-27T15:43:52.738Z,27.22
2018-02-27T15:46:57.358Z,27.81
2018-02-27T15:50:00.520Z,27.51
2018-02-27T15:53:03.617Z,27.51
2018-02-27T15:56:06.705Z,28.31
2018-02-27T15:59:09.801Z,27.81
2018-02-27T16:02:12.882Z,28.06
2018-02-27T16:05:16.168Z,28.13
2018-02-27T16:08:20.280Z,28.16
2018-02-27T16:11:23.367Z,27.99
2018-02-27T16:14:26.484Z,28.22
2018-02-27T16:17:29.576Z,28.83
2018-02-27T16:20:32.669Z,28.90
2018-02-27T16:23:35.772Z,29.14
2018-02-27T16:26:38.904Z,28.65
2018-02-27T16:29:42.479Z,28.63
2018-02-27T16:32:45.649Z,28.81
2018-02-27T16:35:48.863Z,29.10
2018-02-27T16:38:52.952Z,29.37
2018-02-27T16:41:56.096Z,29.38
2018-02-27T16:44:59.227Z,29.40
2018-02-27T16:48:02.398Z,29.35
2018-02-27T16:51:05.584Z,29.40
2018-02-27T16:54:08.753Z,29.62
2018-02-27T16:57:11.928Z,30.11
2018-02-27T17:00:15.648Z,30.10
2018-02-27T17:03:19.171Z,30.16
2018-02-27T17:06:22.288Z,30.74
2018-02-27T17:09:25.418Z,30.52
2018-02-27T17:12:28.548Z,30.68
2018-02-27T17:15:31.648Z,31.47
2018-02-27T17:18:34.760Z,31.18
2018-02-27T17:21:37.896Z,31.12
2018-02-27T17:24:41.137Z,31.31
2018-02-27T17:27:44.256Z,31.45
2018-02-27T17:30:47.382Z,31.26
2018-02-27T17:33:50.704Z,31.18
2018-02-27T17:36:53.861Z,31.63
2018-02-27T17:39:56.959Z,31.34
2018-02-27T17:43:00.069Z,31.87
2018-02-27T17:46:03.188Z,32.01
2018-02-27T17:49:06.264Z,31.84
2018-02-27T17:52:09.452Z,31.68
2018-02-27T17:55:12.524Z,31.95
2018-02-27T17:58:15.662Z,31.78
2018-02-27T18:01:18.809Z,31.76
2018-02-27T18:04:21.980Z,31.78
2018-02-27T18:07:25.162Z,31.85
2018-02-27T18:10:28.348Z,31.86
2018-02-27T18:13:31.539Z,31.67
2018-02-27T18:16:34.751Z,31.86
2018-02-27T18:19:37.928Z,31.54
2018-02-27T18:22:41.201Z,32.07
2018-02-27T18:25:44.404Z,32.01
2018-02-27T18:28:47.644Z,32.41
2018-02-27T18:32:01.624Z,32.39
2018-02-27T18:35:09.936Z,31.90
2018-02-27T18:38:13.135Z,32.20
2018-02-27T18:41:16.301Z,32.50
2018-02-27T18:44:29.804Z,32.81
2018-02-27T18:47:33.955Z,33.33
2018-02-27T18:50:46.712Z,33.60
2018-02-27T18:54:01.516Z,33.62
2018-02-27T18:57:04.684Z,33.67
2018-02-27T19:00:15.133Z,34.28
2018-02-27T19:03:18.388Z,35.78
2018-02-27T19:06:21.556Z,37.08
2018-02-27T19:09:24.786Z,37.53
2018-02-27T19:12:28.025Z,38.08
2018-02-27T19:15:34.293Z,38.33
2018-02-27T19:18:37.484Z,38.40
2018-02-27T19:21:40.669Z,38.49
2018-02-27T19:24:54.198Z,38.80
2018-02-27T19:28:03.226Z,38.88
2018-02-27T19:31:06.391Z,38.76
2018-02-27T19:34:09.688Z,38.86
2018-02-27T19:37:13.067Z,38.91
2018-02-27T19:40:16.205Z,39.28
2018-02-27T19:43:21.025Z,39.32
2018-02-27T19:46:24.243Z,39.32
2018-02-27T19:49:27.469Z,38.82
2018-02-27T19:52:30.762Z,38.80
2018-02-27T19:55:35.168Z,38.94
2018-02-27T19:58:38.433Z,39.62
2018-02-27T20:01:41.649Z,40.27
2018-02-27T20:04:45.178Z,40.61
2018-02-27T20:07:48.472Z,41.07
2018-02-27T20:10:51.886Z,41.64
2018-02-27T20:13:54.986Z,41.72
2018-02-27T20:16:58.176Z,42.02
2018-02-27T20:20:01.541Z,42.04
2018-02-27T20:23:08.832Z,42.38
2018-02-27T20:26:11.992Z,42.50
2018-02-27T20:29:21.804Z,42.81
2018-02-27T20:32:24.987Z,42.90
2018-02-27T20:35:28.123Z,42.73
2018-02-27T20:38:35.417Z,42.87
2018-02-27T20:41:38.612Z,42.87
2018-02-27T20:44:41.993Z,43.02
2018-02-27T20:47:45.216Z,43.36
2018-02-27T20:50:48.589Z,43.82
2018-02-27T20:53:51.700Z,44.04
2018-02-27T20:56:54.848Z,44.07
2018-02-27T20:59:58.246Z,44.25
2018-02-27T21:03:01.389Z,44.24
2018-02-27T21:06:04.479Z,44.49
2018-02-27T21:09:08.060Z,44.88
2018-02-27T21:12:11.231Z,44.85
2018-02-27T21:15:14.485Z,44.83
2018-02-27T21:18:19.715Z,44.97
2018-02-27T21:21:26.709Z,45.96
2018-02-27T21:24:35.173Z,45.93
2018-02-27T21:27:45.513Z,46.07
2018-02-27T21:30:50.936Z,46.66
2018-02-27T21:33:58.788Z,46.73
2018-02-27T21:37:02.908Z,47.10
2018-02-27T21:40:11.617Z,47.46
2018-02-27T21:43:14.833Z,47.48
2018-02-27T21:46:27.723Z,48.23
2018-02-27T21:49:31.923Z,48.38
2018-02-27T21:52:35.381Z,48.79
2018-02-27T21:55:38.575Z,48.87
2018-02-27T21:58:41.692Z,48.61
2018-02-27T22:01:45.880Z,48.69
2018-02-27T22:04:49.092Z,48.61
2018-02-27T22:08:02.168Z,48.35
2018-02-27T22:11:05.356Z,48.48
2018-02-27T22:14:08.600Z,48.28
2018-02-27T22:17:28.339Z,48.74
2018-02-27T22:20:31.533Z,49.09
2018-02-27T22:23:35.685Z,48.96
2018-02-27T22:26:38.949Z,48.98
2018-02-27T22:29:42.145Z,49.00
2018-02-27T22:32:46.303Z,48.95
2018-02-27T22:35:49.561Z,48.77
2018-02-27T22:38:52.761Z,49.12
2018-02-27T22:41:55.976Z,49.22
2018-02-27T22:44:59.212Z,49.44
2018-02-27T22:48:02.407Z,49.56
2018-02-27T22:51:13.273Z,49.98
2018-02-27T22:54:17.483Z,50.30
2018-02-27T22:57:20.722Z,50.50
2018-02-27T23:00:32.867Z,50.80
2018-02-27T23:03:44.096Z,51.25
2018-02-27T23:06:48.548Z,51.86
2018-02-27T23:09:51.774Z,51.86
2018-02-27T23:12:54.965Z,51.94
2018-02-27T23:15:59.112Z,52.24
2018-02-27T23:19:02.327Z,52.26
2018-02-27T23:22:05.465Z,52.57
2018-02-27T23:25:12.813Z,52.67
2018-02-27T23:28:17.474Z,52.09
2018-02-27T23:31:26.265Z,52.18
2018-02-27T23:34:53.616Z,51.03
2018-02-27T23:37:57.784Z,49.53
2018-02-27T23:41:01.924Z,48.79
2018-02-27T23:44:05.037Z,47.40
2018-02-27T23:47:15.309Z,46.92
2018-02-27T23:50:18.541Z,46.79
2018-02-27T23:53:21.688Z,46.18
2018-02-27T23:56:24.870Z,45.64
2018-02-27T23:59:30.094Z,45.46
